createdAt,value
2022-12-02T00:02:26.520Z,2.75
2022-12-02T00:04:56.461Z,2.78
2022-12-02T00:07:25.811Z,2.76
2022-12-02T00:09:53.670Z,2.73
2022-12-02T00:12:22.744Z,2.78
2022-12-02T00:14:56.825Z,2.66
2022-12-02T00:17:25.444Z,2.73
2022-12-02T00:19:53.413Z,2.73
2022-12-02T00:22:21.326Z,2.79
2022-12-02T00:24:50.956Z,2.76
2022-12-02T00:27:19.083Z,2.70
2022-12-02T00:29:47.260Z,2.63
2022-12-02T00:32:15.021Z,2.67
2022-12-02T00:34:42.789Z,2.65
2022-12-02T00:37:10.581Z,2.75
2022-12-02T00:39:38.372Z,2.77
2022-12-02T00:42:07.627Z,2.78
2022-12-02T00:45:07.380Z,2.82
2022-12-02T00:47:35.340Z,2.77
2022-12-02T00:50:03.146Z,2.71
2022-12-02T00:52:30.964Z,2.74
2022-12-02T00:54:58.760Z,2.77
2022-12-02T00:57:27.833Z,2.80
2022-12-02T00:59:55.903Z,2.91
2022-12-02T01:02:23.814Z,2.87
2022-12-02T01:04:51.768Z,2.82
2022-12-02T01:07:19.688Z,2.80
2022-12-02T01:09:47.519Z,2.83
2022-12-02T01:12:16.713Z,2.85
2022-12-02T01:14:45.846Z,2.79
2022-12-02T01:17:13.627Z,2.75
2022-12-02T01:19:41.409Z,2.72
2022-12-02T01:22:09.201Z,2.78
2022-12-02T01:24:37.125Z,2.80
2022-12-02T01:27:04.922Z,2.89
2022-12-02T01:29:32.895Z,2.84
2022-12-02T01:32:02.197Z,2.75
2022-12-02T01:34:30.026Z,2.65
2022-12-02T01:36:57.858Z,2.74
2022-12-02T01:39:25.692Z,2.73
2022-12-02T01:41:53.696Z,2.76
2022-12-02T01:44:21.520Z,2.70
2022-12-02T01:46:49.298Z,2.72
2022-12-02T01:49:18.556Z,2.74
2022-12-02T01:51:46.409Z,2.76
2022-12-02T01:54:14.316Z,2.83
2022-12-02T01:56:42.244Z,2.82
2022-12-02T01:59:10.921Z,2.73
2022-12-02T02:01:39.844Z,2.76
2022-12-02T02:04:08.264Z,2.74
2022-12-02T02:06:38.952Z,2.68
2022-12-02T02:09:07.543Z,2.56
2022-12-02T02:11:35.524Z,2.54
2022-12-02T02:14:04.868Z,2.47
2022-12-02T02:16:33.056Z,2.48
2022-12-02T02:19:01.848Z,2.60
2022-12-02T02:21:32.356Z,2.59
2022-12-02T02:24:01.980Z,2.60
2022-12-02T02:26:30.018Z,2.73
2022-12-02T02:28:57.795Z,2.66
2022-12-02T02:31:25.724Z,2.77
2022-12-02T02:33:53.742Z,2.71
2022-12-02T02:36:22.242Z,2.65
2022-12-02T02:38:50.217Z,2.69
2022-12-02T02:41:19.714Z,2.56
2022-12-02T02:43:47.961Z,2.54
2022-12-02T02:46:16.335Z,2.57
2022-12-02T02:48:44.934Z,2.73
2022-12-02T02:51:13.143Z,2.60
2022-12-02T02:53:41.477Z,2.60
2022-12-02T02:56:10.006Z,2.66
2022-12-02T02:58:39.546Z,2.67
2022-12-02T03:01:09.293Z,2.69
2022-12-02T03:03:39.977Z,2.61
2022-12-02T03:06:09.213Z,2.74
2022-12-02T03:08:37.785Z,2.73
2022-12-02T03:11:08.032Z,2.74
2022-12-02T03:13:37.759Z,2.68
2022-12-02T03:16:08.898Z,2.56
2022-12-02T03:18:37.827Z,2.57
2022-12-02T03:21:05.809Z,2.55
2022-12-02T03:23:34.242Z,2.70
2022-12-02T03:26:02.605Z,2.70
2022-12-02T03:28:30.538Z,2.72
2022-12-02T03:30:58.543Z,2.61
2022-12-02T03:33:28.528Z,2.58
2022-12-02T03:35:56.797Z,2.68
2022-12-02T03:38:24.610Z,2.73
2022-12-02T03:40:52.760Z,2.79
2022-12-02T03:43:20.653Z,2.75
2022-12-02T03:45:48.675Z,2.67
2022-12-02T03:48:21.509Z,2.62
2022-12-02T03:50:51.262Z,2.64
2022-12-02T03:53:19.118Z,2.64
2022-12-02T03:55:47.120Z,2.58
2022-12-02T03:58:14.863Z,2.54
2022-12-02T04:00:42.863Z,2.54
2022-12-02T04:03:10.884Z,2.59
2022-12-02T04:05:38.967Z,2.57
2022-12-02T04:08:08.239Z,2.61
2022-12-02T04:10:36.014Z,2.64
2022-12-02T04:13:03.794Z,2.69
2022-12-02T04:15:33.240Z,2.69
2022-12-02T04:18:01.166Z,2.69
2022-12-02T04:20:29.150Z,2.62
2022-12-02T04:22:56.914Z,2.63
2022-12-02T04:25:26.103Z,2.63
2022-12-02T04:27:55.376Z,2.65
2022-12-02T04:30:23.410Z,2.76
2022-12-02T04:32:51.208Z,2.75
2022-12-02T04:35:18.946Z,2.62
2022-12-02T04:37:46.723Z,2.47
2022-12-02T04:40:15.111Z,2.32
2022-12-02T04:42:44.193Z,2.45
2022-12-02T04:45:12.122Z,2.52
2022-12-02T04:47:39.864Z,2.52
2022-12-02T04:50:08.226Z,2.44
2022-12-02T04:52:36.153Z,2.34
2022-12-02T04:55:03.908Z,2.42
2022-12-02T04:57:33.554Z,2.35
2022-12-02T05:00:02.731Z,2.25
2022-12-02T05:02:30.562Z,2.18
2022-12-02T05:04:59.400Z,2.19
2022-12-02T05:07:27.311Z,2.14
2022-12-02T05:09:55.146Z,2.11
2022-12-02T05:12:24.138Z,2.11
2022-12-02T05:14:52.526Z,2.06
2022-12-02T05:17:22.135Z,2.03
2022-12-02T05:19:49.873Z,2.13
2022-12-02T05:22:17.789Z,2.15
2022-12-02T05:24:48.119Z,2.07
2022-12-02T05:27:16.131Z,2.05
2022-12-02T05:29:44.098Z,2.17
2022-12-02T05:32:11.800Z,2.18
2022-12-02T05:34:40.881Z,2.23
2022-12-02T05:37:08.632Z,2.35
2022-12-02T05:39:36.469Z,2.25
2022-12-02T05:42:07.621Z,2.30
2022-12-02T05:44:39.601Z,2.19
2022-12-02T05:47:19.786Z,2.02
2022-12-02T05:49:49.045Z,2.07
2022-12-02T05:52:21.628Z,2.11
2022-12-02T05:54:50.272Z,2.18
2022-12-02T05:57:24.426Z,2.19
2022-12-02T05:59:56.512Z,2.13
2022-12-02T06:02:26.856Z,2.10
2022-12-02T06:04:59.013Z,2.16
2022-12-02T06:07:27.082Z,2.30
2022-12-02T06:09:54.865Z,2.21
2022-12-02T06:12:22.749Z,2.23
2022-12-02T06:14:53.525Z,2.21
2022-12-02T06:17:22.656Z,2.38
2022-12-02T06:19:53.555Z,2.35
2022-12-02T06:22:24.607Z,2.28
2022-12-02T06:24:54.547Z,2.35
2022-12-02T06:27:22.938Z,2.32
2022-12-02T06:29:53.725Z,2.20
2022-12-02T06:32:22.647Z,2.29
2022-12-02T06:34:52.199Z,2.30
2022-12-02T06:37:21.725Z,2.19
2022-12-02T06:40:26.479Z,2.13
2022-12-02T06:42:41.504Z,2.00
2022-12-02T06:45:28.736Z,2.09
2022-12-02T06:48:14.444Z,2.11
2022-12-02T06:50:43.365Z,2.06
2022-12-02T06:53:25.902Z,2.01
2022-12-02T06:55:59.452Z,1.89
2022-12-02T06:58:29.696Z,2.09
2022-12-02T07:01:03.105Z,2.04
2022-12-02T07:03:32.233Z,2.10
2022-12-02T07:06:11.854Z,2.06
2022-12-02T07:08:40.092Z,2.13
2022-12-02T07:11:16.745Z,2.13
2022-12-02T07:13:44.928Z,2.13
2022-12-02T07:16:28.681Z,2.25
2022-12-02T07:18:56.667Z,2.12
2022-12-02T07:21:24.533Z,2.15
2022-12-02T07:23:52.909Z,2.09
2022-12-02T07:26:22.474Z,2.01
2022-12-02T07:28:51.154Z,1.94
2022-12-02T07:31:20.939Z,1.93
2022-12-02T07:33:49.546Z,2.01
2022-12-02T07:36:17.732Z,2.10
2022-12-02T07:41:38.217Z,2.06
2022-12-02T07:44:06.665Z,2.12
2022-12-02T07:46:35.086Z,2.14
2022-12-02T07:49:03.606Z,2.21
2022-12-02T07:51:32.090Z,2.26
2022-12-02T07:54:02.628Z,2.30
2022-12-02T07:56:34.429Z,2.22
2022-12-02T07:59:13.031Z,2.26
2022-12-02T08:01:45.329Z,2.24
2022-12-02T08:04:13.912Z,2.38
2022-12-02T08:06:42.311Z,2.36
2022-12-02T08:09:10.799Z,2.45
2022-12-02T08:11:39.041Z,2.29
2022-12-02T08:14:08.809Z,2.26
2022-12-02T08:16:37.256Z,2.29
2022-12-02T08:19:05.499Z,2.32
2022-12-02T08:21:34.041Z,2.38
2022-12-02T08:24:03.454Z,2.34
2022-12-02T08:26:31.604Z,2.44
2022-12-02T08:29:00.059Z,2.26
2022-12-02T08:31:29.748Z,2.32
2022-12-02T08:34:01.328Z,2.45
2022-12-02T08:36:34.178Z,2.51
2022-12-02T08:39:05.415Z,2.58
2022-12-02T08:41:33.859Z,2.52
2022-12-02T08:44:02.068Z,2.47
2022-12-02T08:46:31.656Z,2.46
2022-12-02T08:49:00.011Z,2.48
2022-12-02T08:51:28.176Z,2.43
2022-12-02T08:53:56.628Z,2.45
2022-12-02T08:56:24.775Z,2.54
2022-12-02T08:58:53.082Z,2.47
2022-12-02T09:01:21.534Z,2.53
2022-12-02T09:03:51.239Z,2.40
2022-12-02T09:06:19.569Z,2.34
2022-12-02T09:08:47.756Z,2.47
2022-12-02T09:11:26.122Z,2.52
2022-12-02T09:13:54.494Z,2.23
2022-12-02T09:16:22.717Z,2.26
2022-12-02T09:18:52.321Z,2.29
2022-12-02T09:21:20.814Z,2.42
2022-12-02T09:23:50.843Z,2.43
2022-12-02T09:26:20.933Z,2.43
2022-12-02T09:28:49.346Z,2.56
2022-12-02T09:31:17.839Z,2.56
2022-12-02T09:33:46.058Z,2.45
2022-12-02T09:36:15.627Z,2.35
2022-12-02T09:38:44.170Z,2.03
2022-12-02T09:41:12.477Z,2.10
2022-12-02T09:43:40.792Z,2.27
2022-12-02T09:46:09.797Z,2.24
2022-12-02T09:48:50.433Z,2.27
2022-12-02T09:51:19.925Z,2.49
2022-12-02T09:53:48.296Z,2.52
2022-12-02T09:56:18.529Z,2.47
2022-12-02T09:58:48.013Z,2.47
2022-12-02T10:01:16.876Z,2.35
2022-12-02T10:03:45.752Z,2.33
2022-12-02T10:06:16.289Z,2.44
2022-12-02T10:08:46.108Z,2.43
2022-12-02T10:11:18.647Z,2.35
2022-12-02T10:13:47.038Z,2.23
2022-12-02T10:16:15.234Z,2.09
2022-12-02T10:18:43.496Z,2.10
2022-12-02T10:21:11.647Z,2.20
2022-12-02T10:23:54.273Z,2.16
2022-12-02T10:26:22.715Z,2.04
2022-12-02T10:29:01.372Z,2.10
2022-12-02T10:31:30.041Z,2.22
2022-12-02T10:33:59.578Z,2.23
2022-12-02T10:36:31.339Z,2.36
2022-12-02T10:39:17.433Z,2.13
2022-12-02T10:41:45.762Z,2.17
2022-12-02T10:44:15.246Z,2.22
2022-12-02T10:46:43.868Z,2.35
2022-12-02T10:49:17.048Z,2.24
2022-12-02T10:51:46.406Z,2.23
2022-12-02T10:54:24.704Z,2.23
2022-12-02T10:56:59.081Z,2.21
2022-12-02T10:59:27.998Z,2.03
2022-12-02T11:02:02.316Z,2.14
2022-12-02T11:04:31.070Z,2.20
2022-12-02T11:07:05.004Z,2.35
2022-12-02T11:09:48.015Z,2.48
2022-12-02T11:12:30.589Z,2.45
2022-12-02T11:14:59.106Z,2.35
2022-12-02T11:17:46.373Z,2.46
2022-12-02T11:20:35.580Z,2.49
2022-12-02T11:23:24.788Z,2.47
2022-12-02T11:25:55.545Z,2.16
2022-12-02T11:28:40.529Z,2.06
2022-12-02T11:31:22.833Z,2.12
2022-12-02T11:34:06.417Z,2.36
2022-12-02T11:36:36.076Z,2.39
2022-12-02T11:39:08.545Z,2.57
2022-12-02T11:41:55.698Z,2.66
2022-12-02T11:44:26.856Z,2.51
2022-12-02T11:46:56.399Z,2.59
2022-12-02T11:49:35.907Z,2.68
2022-12-02T11:52:13.747Z,2.71
2022-12-02T11:54:42.691Z,2.57
2022-12-02T11:57:16.858Z,2.54
2022-12-02T11:59:46.863Z,2.63
2022-12-02T12:02:15.994Z,2.61
2022-12-02T12:04:44.432Z,2.58
2022-12-02T12:07:12.661Z,2.61
2022-12-02T12:09:41.195Z,2.44
2022-12-02T12:12:15.509Z,2.52
2022-12-02T12:14:58.517Z,2.77
2022-12-02T12:17:31.688Z,2.76
2022-12-02T12:20:00.114Z,2.57
2022-12-02T12:22:29.439Z,2.65
2022-12-02T12:25:12.511Z,2.78
2022-12-02T12:27:41.067Z,2.84
2022-12-02T12:30:20.902Z,2.67
2022-12-02T12:32:49.398Z,2.86
2022-12-02T12:35:17.662Z,2.74
2022-12-02T12:37:45.864Z,2.62
2022-12-02T12:40:14.248Z,2.48
2022-12-02T12:42:42.388Z,2.64
2022-12-02T12:45:12.356Z,2.56
2022-12-02T12:47:40.678Z,2.68
2022-12-02T12:50:09.353Z,2.76
2022-12-02T12:52:37.549Z,2.73
2022-12-02T12:55:06.082Z,2.46
2022-12-02T12:57:34.251Z,2.64
2022-12-02T13:00:02.764Z,2.54
2022-12-02T13:02:32.416Z,2.53
2022-12-02T13:05:00.583Z,2.68
2022-12-02T13:07:28.809Z,2.64
2022-12-02T13:09:56.929Z,2.55
2022-12-02T13:12:25.285Z,2.59
2022-12-02T13:14:53.853Z,2.61
2022-12-02T13:17:22.194Z,2.68
2022-12-02T13:19:51.663Z,2.54
2022-12-02T13:22:19.862Z,2.58
2022-12-02T13:24:53.963Z,2.54
2022-12-02T13:27:27.458Z,2.49
2022-12-02T13:29:55.562Z,2.36
2022-12-02T13:32:23.942Z,2.47
2022-12-02T13:34:53.699Z,2.45
2022-12-02T13:37:23.798Z,2.33
2022-12-02T13:39:52.427Z,2.30
2022-12-02T13:42:23.549Z,2.32
2022-12-02T13:44:52.545Z,2.35
2022-12-02T13:47:20.848Z,2.29
2022-12-02T13:49:49.151Z,2.30
2022-12-02T13:52:19.962Z,2.24
2022-12-02T13:54:48.246Z,2.31
2022-12-02T13:57:16.603Z,2.43
2022-12-02T13:59:44.986Z,2.23
2022-12-02T14:02:14.842Z,2.38
2022-12-02T14:04:42.963Z,2.21
2022-12-02T14:07:11.136Z,2.27
2022-12-02T14:09:40.767Z,2.16
2022-12-02T14:12:13.515Z,2.16
2022-12-02T14:17:51.989Z,2.15
2022-12-02T14:20:24.625Z,2.21
2022-12-02T14:22:53.274Z,2.17
2022-12-02T14:25:24.048Z,2.19
2022-12-02T14:27:52.301Z,2.26
2022-12-02T14:30:21.866Z,2.21
2022-12-02T14:32:50.079Z,2.17
2022-12-02T14:35:18.526Z,2.19
2022-12-02T14:37:46.712Z,2.17
2022-12-02T14:40:16.323Z,2.22
2022-12-02T14:42:45.863Z,2.24
2022-12-02T14:45:14.058Z,2.20
2022-12-02T14:47:45.576Z,2.25
2022-12-02T14:50:13.982Z,2.29
2022-12-02T14:52:42.713Z,2.17
2022-12-02T14:55:10.999Z,2.11
2022-12-02T14:57:40.442Z,2.11
2022-12-02T15:00:14.235Z,2.00
2022-12-02T15:02:42.795Z,2.08
2022-12-02T15:05:14.535Z,1.98
2022-12-02T15:07:43.683Z,2.00
2022-12-02T15:10:13.478Z,2.11
2022-12-02T15:12:41.902Z,2.00
2022-12-02T15:15:36.999Z,1.90
2022-12-02T15:18:00.379Z,1.91
2022-12-02T15:20:30.798Z,1.87
2022-12-02T15:22:58.945Z,1.99
2022-12-02T15:25:27.070Z,1.88
2022-12-02T15:27:55.210Z,2.03
2022-12-02T15:30:24.950Z,2.02
2022-12-02T15:32:53.146Z,1.96
2022-12-02T15:35:21.347Z,2.00
2022-12-02T15:37:51.909Z,2.04
2022-12-02T15:40:20.203Z,1.88
2022-12-02T15:42:48.545Z,1.81
2022-12-02T15:45:16.807Z,1.81
2022-12-02T15:47:46.908Z,1.82
2022-12-02T15:50:15.245Z,1.73
2022-12-02T15:52:43.458Z,1.76
2022-12-02T15:55:13.834Z,1.75
2022-12-02T15:57:42.044Z,1.55
2022-12-02T16:00:11.834Z,1.59
2022-12-02T16:02:56.411Z,1.71
2022-12-02T16:05:26.545Z,1.75
2022-12-02T16:07:55.703Z,1.74
2022-12-02T16:10:28.753Z,1.73
2022-12-02T16:12:57.101Z,1.70
2022-12-02T16:15:27.395Z,1.72
2022-12-02T16:17:55.622Z,1.50
2022-12-02T16:20:23.909Z,1.57
2022-12-02T16:22:53.457Z,1.57
2022-12-02T16:25:21.709Z,1.39
2022-12-02T16:27:52.141Z,1.48
2022-12-02T16:30:20.372Z,1.51
2022-12-02T16:32:49.420Z,1.53
2022-12-02T16:35:17.690Z,1.65
2022-12-02T16:37:46.032Z,1.67
2022-12-02T16:40:16.177Z,1.50
2022-12-02T16:42:44.379Z,1.41
2022-12-02T16:45:12.603Z,1.27
2022-12-02T16:47:41.109Z,1.27
2022-12-02T16:50:23.873Z,1.33
2022-12-02T16:52:52.370Z,1.25
2022-12-02T16:55:21.953Z,1.18
2022-12-02T16:57:50.051Z,1.24
2022-12-02T17:00:19.806Z,1.20
2022-12-02T17:02:50.547Z,1.22
2022-12-02T17:05:18.799Z,1.22
2022-12-02T17:07:47.261Z,1.30
2022-12-02T17:10:17.512Z,1.30
2022-12-02T17:12:47.368Z,1.18
2022-12-02T17:15:17.781Z,1.11
2022-12-02T17:17:46.955Z,1.27
2022-12-02T17:20:15.579Z,1.24
2022-12-02T17:22:44.382Z,1.33
2022-12-02T17:25:13.566Z,1.35
2022-12-02T17:27:41.933Z,1.26
2022-12-02T17:30:12.791Z,1.31
2022-12-02T17:32:41.196Z,1.19
2022-12-02T17:35:09.908Z,1.15
2022-12-02T17:37:38.154Z,1.10
2022-12-02T17:40:07.549Z,1.06
2022-12-02T17:42:35.694Z,1.10
2022-12-02T17:45:04.039Z,1.12
2022-12-02T17:47:33.614Z,1.07
2022-12-02T17:50:01.790Z,1.16
2022-12-02T17:52:30.037Z,1.05
2022-12-02T17:54:58.153Z,1.06
2022-12-02T17:57:26.414Z,1.15
2022-12-02T17:59:54.640Z,0.98
2022-12-02T18:02:22.872Z,1.04
2022-12-02T18:04:52.776Z,1.06
2022-12-02T18:07:21.423Z,1.02
2022-12-02T18:09:49.775Z,1.07
2022-12-02T18:12:17.977Z,1.25
2022-12-02T18:14:46.167Z,1.06
2022-12-02T18:17:14.543Z,0.99
2022-12-02T18:19:42.968Z,0.96
2022-12-02T18:22:12.793Z,0.98
2022-12-02T18:24:41.009Z,0.90
2022-12-02T18:27:09.275Z,1.01
2022-12-02T18:29:37.448Z,0.96
2022-12-02T18:32:05.699Z,1.08
2022-12-02T18:34:34.082Z,0.90
2022-12-02T18:37:02.643Z,0.86
2022-12-02T18:39:32.147Z,0.98
2022-12-02T18:42:00.260Z,0.95
2022-12-02T18:44:28.589Z,0.78
2022-12-02T18:46:57.133Z,0.87
2022-12-02T18:49:28.083Z,0.96
2022-12-02T18:52:01.139Z,0.88
2022-12-02T18:54:50.678Z,0.92
2022-12-02T18:57:22.360Z,0.94
2022-12-02T18:59:54.557Z,0.81
2022-12-02T19:02:34.762Z,0.84
2022-12-02T19:05:03.071Z,0.86
2022-12-02T19:07:31.352Z,0.85
2022-12-02T19:10:01.011Z,0.87
2022-12-02T19:12:29.642Z,0.94
2022-12-02T19:14:58.101Z,0.97
2022-12-02T19:17:26.359Z,0.75
2022-12-02T19:20:20.251Z,0.85
2022-12-02T19:22:48.525Z,0.89
2022-12-02T19:25:18.133Z,0.87
2022-12-02T19:27:57.435Z,0.89
2022-12-02T19:30:27.341Z,0.94
2022-12-02T19:32:55.525Z,1.06
2022-12-02T19:35:23.725Z,0.90
2022-12-02T19:37:52.926Z,0.82
2022-12-02T19:40:22.390Z,0.76
2022-12-02T19:42:50.813Z,0.75
2022-12-02T19:45:18.993Z,0.77
2022-12-02T19:47:47.059Z,0.78
2022-12-02T19:50:15.514Z,0.87
2022-12-02T19:52:47.366Z,0.81
2022-12-02T19:55:16.556Z,0.82
2022-12-02T19:57:46.177Z,0.66
2022-12-02T20:00:15.683Z,0.77
2022-12-02T20:02:44.135Z,0.74
2022-12-02T20:05:13.997Z,0.90
2022-12-02T20:07:42.470Z,0.77
2022-12-02T20:10:11.566Z,0.72
2022-12-02T20:12:40.001Z,0.63
2022-12-02T20:15:13.384Z,0.71
2022-12-02T20:17:42.806Z,0.70
2022-12-02T20:20:12.927Z,0.64
2022-12-02T20:22:41.036Z,0.57
2022-12-02T20:25:09.884Z,0.53
2022-12-02T20:27:38.180Z,0.64
2022-12-02T20:30:06.986Z,0.59
2022-12-02T20:32:37.662Z,0.73
2022-12-02T20:35:06.286Z,0.78
2022-12-02T20:37:34.500Z,0.75
2022-12-02T20:40:07.070Z,0.71
2022-12-02T20:42:35.457Z,0.66
2022-12-02T20:45:05.300Z,0.54
2022-12-02T20:47:33.434Z,0.57
2022-12-02T20:50:02.994Z,0.58
2022-12-02T20:52:31.317Z,0.74
2022-12-02T20:54:59.622Z,0.77
2022-12-02T20:57:30.652Z,0.69
2022-12-02T20:59:59.110Z,0.82
2022-12-02T21:02:28.618Z,0.78
2022-12-02T21:04:56.916Z,0.81
2022-12-02T21:07:26.528Z,0.63
2022-12-02T21:09:55.685Z,0.58
2022-12-02T21:12:24.040Z,0.59
2022-12-02T21:14:52.553Z,0.59
2022-12-02T21:17:21.049Z,0.71
2022-12-02T21:19:49.403Z,0.77
2022-12-02T21:22:17.842Z,0.78
2022-12-02T21:24:53.901Z,0.82
2022-12-02T21:27:22.464Z,0.82
2022-12-02T21:29:50.691Z,0.76
2022-12-02T21:32:19.518Z,0.63
2022-12-02T21:34:47.648Z,0.58
2022-12-02T21:37:15.957Z,0.72
2022-12-02T21:39:44.256Z,0.71
2022-12-02T21:42:13.814Z,0.69
2022-12-02T21:44:42.505Z,0.78
2022-12-02T21:47:10.784Z,0.78
2022-12-02T21:49:40.089Z,0.77
2022-12-02T21:52:09.675Z,0.71
2022-12-02T21:54:37.888Z,0.73
2022-12-02T21:57:08.113Z,0.80
2022-12-02T21:59:37.645Z,0.77
2022-12-02T22:02:15.303Z,0.77
2022-12-02T22:05:03.131Z,0.71
2022-12-02T22:07:44.769Z,0.70
2022-12-02T22:10:15.461Z,0.78
2022-12-02T22:12:43.636Z,0.72
2022-12-02T22:15:14.381Z,0.81
2022-12-02T22:17:45.975Z,0.80
2022-12-02T22:23:08.365Z,0.77
2022-12-02T22:28:28.707Z,0.87
2022-12-02T22:31:21.335Z,0.76
2022-12-02T22:34:17.974Z,0.86
2022-12-02T22:36:46.493Z,0.79
2022-12-02T22:39:15.039Z,0.81
2022-12-02T22:41:44.768Z,0.82
2022-12-02T22:44:14.965Z,0.77
2022-12-02T22:46:44.471Z,0.79
2022-12-02T22:49:12.871Z,0.78
2022-12-02T22:51:41.086Z,0.83
2022-12-02T22:54:09.325Z,0.82
2022-12-02T22:56:37.433Z,0.76
2022-12-02T22:59:05.607Z,0.80
2022-12-02T23:01:34.606Z,0.75
2022-12-02T23:04:04.324Z,0.81
2022-12-02T23:06:32.568Z,0.78
2022-12-02T23:09:00.670Z,0.87
2022-12-02T23:11:28.861Z,0.87
2022-12-02T23:13:57.265Z,0.97
2022-12-02T23:16:25.460Z,0.90
2022-12-02T23:18:54.352Z,0.90
2022-12-02T23:21:23.785Z,0.98
2022-12-02T23:23:51.888Z,0.85
2022-12-02T23:26:20.025Z,0.87
2022-12-02T23:28:48.167Z,0.87
2022-12-02T23:31:16.749Z,0.91
2022-12-02T23:33:45.019Z,0.85
2022-12-02T23:36:13.142Z,0.84
2022-12-02T23:38:42.594Z,0.86
2022-12-02T23:41:10.685Z,0.82
2022-12-02T23:43:38.977Z,0.89
2022-12-02T23:46:07.287Z,0.99
2022-12-02T23:48:35.455Z,0.89
2022-12-02T23:51:03.606Z,0.92
2022-12-02T23:53:31.778Z,0.86
2022-12-02T23:56:01.388Z,0.83
2022-12-02T23:58:29.564Z,0.85
